sensor_id;sensor_type;location;lat;lon;timestamp;P1;durP1;ratioP1;P2;durP2;ratioP2
12947;SDS011;6539;49.476;8.484;2023-03-23T00:02:22;2.70;;;1.70;;
12947;SDS011;6539;49.476;8.484;2023-03-23T00:04:57;2.90;;;1.80;;
12947;SDS011;6539;49.476;8.484;2023-03-23T00:07:25;3.77;;;1.90;;
12947;SDS011;6539;49.476;8.484;2023-03-23T00:09:56;2.23;;;1.50;;
12947;SDS011;6539;49.476;8.484;2023-03-23T00:12:25;1.83;;;1.37;;
12947;SDS011;6539;49.476;8.484;2023-03-23T00:15:00;2.17;;;1.70;;
12947;SDS011;6539;49.476;8.484;2023-03-23T00:17:33;3.03;;;1.60;;
12947;SDS011;6539;49.476;8.484;2023-03-23T00:20:00;2.30;;;1.80;;
12947;SDS011;6539;49.476;8.484;2023-03-23T00:22:33;1.50;;;1.40;;
12947;SDS011;6539;49.476;8.484;2023-03-23T00:25:03;2.77;;;1.70;;
12947;SDS011;6539;49.476;8.484;2023-03-23T00:27:33;1.73;;;1.50;;
12947;SDS011;6539;49.476;8.484;2023-03-23T00:29:59;2.80;;;1.47;;
12947;SDS011;6539;49.476;8.484;2023-03-23T00:32:28;2.30;;;1.50;;
12947;SDS011;6539;49.476;8.484;2023-03-23T00:34:55;2.23;;;1.70;;
12947;SDS011;6539;49.476;8.484;2023-03-23T00:37:24;1.50;;;1.40;;
12947;SDS011;6539;49.476;8.484;2023-03-23T00:39:50;1.73;;;1.30;;
12947;SDS011;6539;49.476;8.484;2023-03-23T00:42:22;1.50;;;1.30;;
12947;SDS011;6539;49.476;8.484;2023-03-23T00:44:53;1.40;;;1.30;;
12947;SDS011;6539;49.476;8.484;2023-03-23T00:47:25;1.30;;;1.20;;
12947;SDS011;6539;49.476;8.484;2023-03-23T00:49:51;1.50;;;1.33;;
12947;SDS011;6539;49.476;8.484;2023-03-23T00:52:18;2.00;;;1.60;;
12947;SDS011;6539;49.476;8.484;2023-03-23T00:54:44;1.77;;;1.40;;
12947;SDS011;6539;49.476;8.484;2023-03-23T00:57:10;2.47;;;1.60;;
12947;SDS011;6539;49.476;8.484;2023-03-23T00:59:36;2.77;;;1.60;;
12947;SDS011;6539;49.476;8.484;2023-03-23T01:02:02;4.03;;;1.50;;
12947;SDS011;6539;49.476;8.484;2023-03-23T01:04:27;4.50;;;1.60;;
12947;SDS011;6539;49.476;8.484;2023-03-23T01:06:56;1.60;;;1.47;;
12947;SDS011;6539;49.476;8.484;2023-03-23T01:09:25;1.30;;;1.20;;
12947;SDS011;6539;49.476;8.484;2023-03-23T01:11:56;2.33;;;1.47;;
12947;SDS011;6539;49.476;8.484;2023-03-23T01:14:22;2.40;;;1.50;;
12947;SDS011;6539;49.476;8.484;2023-03-23T01:16:50;5.83;;;1.57;;
12947;SDS011;6539;49.476;8.484;2023-03-23T01:19:16;2.77;;;1.47;;
12947;SDS011;6539;49.476;8.484;2023-03-23T01:21:43;1.73;;;1.57;;
12947;SDS011;6539;49.476;8.484;2023-03-23T01:24:11;4.07;;;1.50;;
12947;SDS011;6539;49.476;8.484;2023-03-23T01:26:39;1.40;;;1.30;;
12947;SDS011;6539;49.476;8.484;2023-03-23T01:29:08;1.47;;;1.37;;
12947;SDS011;6539;49.476;8.484;2023-03-23T01:31:33;1.47;;;1.10;;
12947;SDS011;6539;49.476;8.484;2023-03-23T01:34:01;2.83;;;1.30;;
12947;SDS011;6539;49.476;8.484;2023-03-23T01:36:30;3.73;;;1.50;;
12947;SDS011;6539;49.476;8.484;2023-03-23T01:39:00;1.90;;;1.40;;
12947;SDS011;6539;49.476;8.484;2023-03-23T01:41:28;2.93;;;1.67;;
12947;SDS011;6539;49.476;8.484;2023-03-23T01:44:00;1.40;;;1.30;;
12947;SDS011;6539;49.476;8.484;2023-03-23T01:46:35;2.70;;;1.43;;
12947;SDS011;6539;49.476;8.484;2023-03-23T01:49:03;2.17;;;1.50;;
12947;SDS011;6539;49.476;8.484;2023-03-23T01:51:38;2.13;;;1.37;;
12947;SDS011;6539;49.476;8.484;2023-03-23T01:54:13;1.47;;;1.37;;
12947;SDS011;6539;49.476;8.484;2023-03-23T01:56:46;1.77;;;1.33;;
12947;SDS011;6539;49.476;8.484;2023-03-23T01:59:29;1.83;;;1.50;;
12947;SDS011;6539;49.476;8.484;2023-03-23T02:01:58;2.80;;;1.47;;
12947;SDS011;6539;49.476;8.484;2023-03-23T02:04:25;1.40;;;1.30;;
12947;SDS011;6539;49.476;8.484;2023-03-23T02:06:56;2.23;;;1.60;;
12947;SDS011;6539;49.476;8.484;2023-03-23T02:09:26;1.60;;;1.50;;
12947;SDS011;6539;49.476;8.484;2023-03-23T02:11:55;1.43;;;1.30;;
12947;SDS011;6539;49.476;8.484;2023-03-23T02:14:23;4.00;;;1.23;;
12947;SDS011;6539;49.476;8.484;2023-03-23T02:22:59;2.03;;;1.50;;
12947;SDS011;6539;49.476;8.484;2023-03-23T02:34:50;1.43;;;1.33;;
12947;SDS011;6539;49.476;8.484;2023-03-23T02:37:24;1.80;;;1.57;;
12947;SDS011;6539;49.476;8.484;2023-03-23T02:40:05;2.10;;;1.70;;
12947;SDS011;6539;49.476;8.484;2023-03-23T02:42:42;1.57;;;1.33;;
12947;SDS011;6539;49.476;8.484;2023-03-23T02:45:15;2.00;;;1.70;;
12947;SDS011;6539;49.476;8.484;2023-03-23T02:47:43;2.10;;;1.63;;
12947;SDS011;6539;49.476;8.484;2023-03-23T02:50:13;2.00;;;1.37;;
12947;SDS011;6539;49.476;8.484;2023-03-23T02:52:41;2.30;;;1.63;;
12947;SDS011;6539;49.476;8.484;2023-03-23T02:55:09;1.70;;;1.30;;
12947;SDS011;6539;49.476;8.484;2023-03-23T02:57:36;1.40;;;1.30;;
12947;SDS011;6539;49.476;8.484;2023-03-23T03:00:11;4.27;;;1.40;;
12947;SDS011;6539;49.476;8.484;2023-03-23T03:02:47;3.10;;;1.63;;
12947;SDS011;6539;49.476;8.484;2023-03-23T03:08:10;3.03;;;1.47;;
12947;SDS011;6539;49.476;8.484;2023-03-23T03:13:25;1.47;;;1.30;;
12947;SDS011;6539;49.476;8.484;2023-03-23T03:18:57;1.60;;;1.50;;
12947;SDS011;6539;49.476;8.484;2023-03-23T03:21:37;2.03;;;1.47;;
12947;SDS011;6539;49.476;8.484;2023-03-23T03:24:08;1.83;;;1.50;;
12947;SDS011;6539;49.476;8.484;2023-03-23T03:26:43;3.07;;;1.77;;
12947;SDS011;6539;49.476;8.484;2023-03-23T03:29:15;2.87;;;1.90;;
12947;SDS011;6539;49.476;8.484;2023-03-23T03:31:45;1.80;;;1.57;;
12947;SDS011;6539;49.476;8.484;2023-03-23T03:34:14;3.13;;;2.00;;
12947;SDS011;6539;49.476;8.484;2023-03-23T03:36:42;5.67;;;2.30;;
12947;SDS011;6539;49.476;8.484;2023-03-23T03:39:13;2.83;;;1.90;;
12947;SDS011;6539;49.476;8.484;2023-03-23T03:41:42;2.70;;;1.80;;
12947;SDS011;6539;49.476;8.484;2023-03-23T03:44:09;2.13;;;1.93;;
12947;SDS011;6539;49.476;8.484;2023-03-23T03:46:38;2.23;;;1.50;;
12947;SDS011;6539;49.476;8.484;2023-03-23T03:49:05;2.17;;;1.70;;
12947;SDS011;6539;49.476;8.484;2023-03-23T03:51:37;1.93;;;1.70;;
12947;SDS011;6539;49.476;8.484;2023-03-23T03:54:03;2.83;;;1.70;;
12947;SDS011;6539;49.476;8.484;2023-03-23T03:56:31;2.30;;;1.80;;
12947;SDS011;6539;49.476;8.484;2023-03-23T03:59:01;2.63;;;1.80;;
12947;SDS011;6539;49.476;8.484;2023-03-23T04:01:28;3.90;;;1.80;;
12947;SDS011;6539;49.476;8.484;2023-03-23T04:03:56;3.07;;;1.77;;
12947;SDS011;6539;49.476;8.484;2023-03-23T04:06:22;2.13;;;1.97;;
12947;SDS011;6539;49.476;8.484;2023-03-23T04:08:50;2.00;;;1.70;;
12947;SDS011;6539;49.476;8.484;2023-03-23T04:11:22;4.43;;;1.70;;
12947;SDS011;6539;49.476;8.484;2023-03-23T04:13:48;3.63;;;1.80;;
12947;SDS011;6539;49.476;8.484;2023-03-23T04:16:13;4.70;;;2.03;;
12947;SDS011;6539;49.476;8.484;2023-03-23T04:18:41;2.00;;;1.70;;
12947;SDS011;6539;49.476;8.484;2023-03-23T04:21:10;3.13;;;2.17;;
12947;SDS011;6539;49.476;8.484;2023-03-23T04:23:38;2.53;;;1.80;;
12947;SDS011;6539;49.476;8.484;2023-03-23T04:26:04;3.00;;;1.90;;
12947;SDS011;6539;49.476;8.484;2023-03-23T04:28:30;2.10;;;1.80;;
12947;SDS011;6539;49.476;8.484;2023-03-23T04:31:01;3.10;;;1.90;;
12947;SDS011;6539;49.476;8.484;2023-03-23T04:33:29;3.23;;;1.97;;
12947;SDS011;6539;49.476;8.484;2023-03-23T04:35:58;4.37;;;1.70;;
12947;SDS011;6539;49.476;8.484;2023-03-23T04:38:28;5.23;;;2.03;;
12947;SDS011;6539;49.476;8.484;2023-03-23T04:40:57;1.77;;;1.63;;
12947;SDS011;6539;49.476;8.484;2023-03-23T04:43:28;3.17;;;1.93;;
12947;SDS011;6539;49.476;8.484;2023-03-23T04:45:55;2.97;;;2.17;;
12947;SDS011;6539;49.476;8.484;2023-03-23T04:48:27;3.47;;;2.40;;
12947;SDS011;6539;49.476;8.484;2023-03-23T04:50:58;3.50;;;1.80;;
12947;SDS011;6539;49.476;8.484;2023-03-23T04:53:27;2.73;;;1.80;;
12947;SDS011;6539;49.476;8.484;2023-03-23T04:55:54;3.67;;;1.93;;
12947;SDS011;6539;49.476;8.484;2023-03-23T04:58:20;3.93;;;2.30;;
12947;SDS011;6539;49.476;8.484;2023-03-23T05:00:48;3.37;;;2.40;;
12947;SDS011;6539;49.476;8.484;2023-03-23T05:03:19;5.87;;;2.40;;
12947;SDS011;6539;49.476;8.484;2023-03-23T05:05:45;5.17;;;2.60;;
12947;SDS011;6539;49.476;8.484;2023-03-23T05:08:16;5.03;;;2.43;;
12947;SDS011;6539;49.476;8.484;2023-03-23T05:10:53;2.60;;;2.00;;
12947;SDS011;6539;49.476;8.484;2023-03-23T05:13:21;3.23;;;2.13;;
12947;SDS011;6539;49.476;8.484;2023-03-23T05:15:48;2.43;;;2.10;;
12947;SDS011;6539;49.476;8.484;2023-03-23T05:18:14;4.87;;;2.60;;
12947;SDS011;6539;49.476;8.484;2023-03-23T05:20:45;3.20;;;2.43;;
12947;SDS011;6539;49.476;8.484;2023-03-23T05:23:12;3.40;;;2.60;;
12947;SDS011;6539;49.476;8.484;2023-03-23T05:25:40;2.70;;;2.03;;
12947;SDS011;6539;49.476;8.484;2023-03-23T05:28:07;2.73;;;2.17;;
12947;SDS011;6539;49.476;8.484;2023-03-23T05:30:36;3.53;;;2.67;;
12947;SDS011;6539;49.476;8.484;2023-03-23T05:33:05;3.73;;;2.30;;
12947;SDS011;6539;49.476;8.484;2023-03-23T05:35:33;5.83;;;2.57;;
12947;SDS011;6539;49.476;8.484;2023-03-23T05:38:00;2.57;;;2.10;;
12947;SDS011;6539;49.476;8.484;2023-03-23T05:40:26;4.73;;;2.03;;
12947;SDS011;6539;49.476;8.484;2023-03-23T05:42:53;3.93;;;2.27;;
12947;SDS011;6539;49.476;8.484;2023-03-23T05:45:24;3.00;;;2.43;;
12947;SDS011;6539;49.476;8.484;2023-03-23T05:47:53;4.93;;;2.67;;
12947;SDS011;6539;49.476;8.484;2023-03-23T05:50:21;2.43;;;2.23;;
12947;SDS011;6539;49.476;8.484;2023-03-23T05:52:47;3.33;;;2.10;;
12947;SDS011;6539;49.476;8.484;2023-03-23T05:55:13;5.30;;;2.67;;
12947;SDS011;6539;49.476;8.484;2023-03-23T05:57:42;3.33;;;2.40;;
12947;SDS011;6539;49.476;8.484;2023-03-23T06:00:10;4.13;;;2.50;;
12947;SDS011;6539;49.476;8.484;2023-03-23T06:02:45;8.90;;;2.47;;
12947;SDS011;6539;49.476;8.484;2023-03-23T06:05:13;6.20;;;2.75;;
12947;SDS011;6539;49.476;8.484;2023-03-23T06:07:40;5.73;;;2.10;;
12947;SDS011;6539;49.476;8.484;2023-03-23T06:10:09;3.97;;;3.07;;
12947;SDS011;6539;49.476;8.484;2023-03-23T06:12:40;3.13;;;1.80;;
12947;SDS011;6539;49.476;8.484;2023-03-23T06:15:06;3.43;;;2.37;;
12947;SDS011;6539;49.476;8.484;2023-03-23T06:17:37;6.73;;;2.37;;
12947;SDS011;6539;49.476;8.484;2023-03-23T06:20:04;2.80;;;1.80;;
12947;SDS011;6539;49.476;8.484;2023-03-23T06:22:38;3.23;;;2.10;;
12947;SDS011;6539;49.476;8.484;2023-03-23T06:25:08;4.10;;;2.20;;
12947;SDS011;6539;49.476;8.484;2023-03-23T06:27:40;5.23;;;2.00;;
12947;SDS011;6539;49.476;8.484;2023-03-23T06:30:06;4.80;;;2.50;;
12947;SDS011;6539;49.476;8.484;2023-03-23T06:32:35;5.80;;;2.27;;
12947;SDS011;6539;49.476;8.484;2023-03-23T06:35:04;4.77;;;2.20;;
12947;SDS011;6539;49.476;8.484;2023-03-23T06:37:31;3.50;;;2.37;;
12947;SDS011;6539;49.476;8.484;2023-03-23T06:39:57;3.60;;;1.90;;
12947;SDS011;6539;49.476;8.484;2023-03-23T06:42:25;3.20;;;2.20;;
12947;SDS011;6539;49.476;8.484;2023-03-23T06:44:51;4.40;;;2.33;;
12947;SDS011;6539;49.476;8.484;2023-03-23T06:47:22;2.93;;;2.37;;
12947;SDS011;6539;49.476;8.484;2023-03-23T06:49:49;6.03;;;2.97;;
12947;SDS011;6539;49.476;8.484;2023-03-23T06:52:20;4.70;;;2.50;;
12947;SDS011;6539;49.476;8.484;2023-03-23T06:54:49;2.83;;;2.27;;
12947;SDS011;6539;49.476;8.484;2023-03-23T06:57:22;4.50;;;1.70;;
12947;SDS011;6539;49.476;8.484;2023-03-23T06:59:49;3.23;;;2.07;;
12947;SDS011;6539;49.476;8.484;2023-03-23T07:02:14;2.20;;;1.80;;
12947;SDS011;6539;49.476;8.484;2023-03-23T07:04:45;2.27;;;1.97;;
12947;SDS011;6539;49.476;8.484;2023-03-23T07:07:11;4.27;;;1.40;;
12947;SDS011;6539;49.476;8.484;2023-03-23T07:09:39;4.27;;;1.67;;
12947;SDS011;6539;49.476;8.484;2023-03-23T07:12:06;3.57;;;1.90;;
12947;SDS011;6539;49.476;8.484;2023-03-23T07:14:32;2.10;;;1.40;;
12947;SDS011;6539;49.476;8.484;2023-03-23T07:17:00;3.13;;;1.40;;
12947;SDS011;6539;49.476;8.484;2023-03-23T07:19:28;5.57;;;1.93;;
12947;SDS011;6539;49.476;8.484;2023-03-23T07:21:56;3.67;;;1.60;;
12947;SDS011;6539;49.476;8.484;2023-03-23T07:24:22;2.23;;;1.20;;
12947;SDS011;6539;49.476;8.484;2023-03-23T07:26:50;2.87;;;1.30;;
12947;SDS011;6539;49.476;8.484;2023-03-23T07:29:16;1.10;;;1.00;;
12947;SDS011;6539;49.476;8.484;2023-03-23T07:31:49;1.90;;;1.53;;
12947;SDS011;6539;49.476;8.484;2023-03-23T07:34:16;2.93;;;1.13;;
12947;SDS011;6539;49.476;8.484;2023-03-23T07:36:42;2.13;;;1.10;;
12947;SDS011;6539;49.476;8.484;2023-03-23T07:39:11;1.37;;;1.20;;
12947;SDS011;6539;49.476;8.484;2023-03-23T07:41:38;1.67;;;1.20;;
12947;SDS011;6539;49.476;8.484;2023-03-23T07:44:04;2.20;;;1.17;;
12947;SDS011;6539;49.476;8.484;2023-03-23T07:46:31;2.50;;;1.40;;
12947;SDS011;6539;49.476;8.484;2023-03-23T07:49:00;8.93;;;1.60;;
12947;SDS011;6539;49.476;8.484;2023-03-23T07:51:35;3.80;;;1.50;;
12947;SDS011;6539;49.476;8.484;2023-03-23T07:54:03;2.37;;;1.50;;
12947;SDS011;6539;49.476;8.484;2023-03-23T07:56:32;2.40;;;1.47;;
12947;SDS011;6539;49.476;8.484;2023-03-23T07:59:00;2.80;;;1.50;;
12947;SDS011;6539;49.476;8.484;2023-03-23T08:01:27;3.10;;;1.47;;
12947;SDS011;6539;49.476;8.484;2023-03-23T08:03:54;2.80;;;1.40;;
12947;SDS011;6539;49.476;8.484;2023-03-23T08:06:23;3.50;;;1.57;;
12947;SDS011;6539;49.476;8.484;2023-03-23T08:08:52;1.40;;;1.30;;
12947;SDS011;6539;49.476;8.484;2023-03-23T08:11:19;1.97;;;1.27;;
12947;SDS011;6539;49.476;8.484;2023-03-23T08:13:45;9.63;;;5.63;;
12947;SDS011;6539;49.476;8.484;2023-03-23T08:16:11;1.83;;;1.47;;
12947;SDS011;6539;49.476;8.484;2023-03-23T08:18:38;2.87;;;1.70;;
12947;SDS011;6539;49.476;8.484;2023-03-23T08:21:05;3.97;;;1.50;;
12947;SDS011;6539;49.476;8.484;2023-03-23T08:23:38;5.50;;;1.60;;
12947;SDS011;6539;49.476;8.484;2023-03-23T08:26:04;1.73;;;1.40;;
12947;SDS011;6539;49.476;8.484;2023-03-23T08:28:35;1.53;;;1.40;;
12947;SDS011;6539;49.476;8.484;2023-03-23T08:31:06;3.20;;;1.40;;
12947;SDS011;6539;49.476;8.484;2023-03-23T08:33:35;2.53;;;1.33;;
12947;SDS011;6539;49.476;8.484;2023-03-23T08:36:03;2.13;;;1.10;;
12947;SDS011;6539;49.476;8.484;2023-03-23T08:38:32;2.23;;;1.50;;
12947;SDS011;6539;49.476;8.484;2023-03-23T08:40:59;2.10;;;1.50;;
12947;SDS011;6539;49.476;8.484;2023-03-23T08:43:32;1.70;;;1.43;;
12947;SDS011;6539;49.476;8.484;2023-03-23T08:46:00;2.43;;;1.20;;
12947;SDS011;6539;49.476;8.484;2023-03-23T08:48:31;2.03;;;1.43;;
12947;SDS011;6539;49.476;8.484;2023-03-23T08:51:00;1.83;;;1.27;;
12947;SDS011;6539;49.476;8.484;2023-03-23T08:53:27;2.93;;;1.60;;
12947;SDS011;6539;49.476;8.484;2023-03-23T08:56:04;1.43;;;1.33;;
12947;SDS011;6539;49.476;8.484;2023-03-23T08:58:35;2.57;;;1.60;;
12947;SDS011;6539;49.476;8.484;2023-03-23T09:01:05;2.07;;;1.67;;
12947;SDS011;6539;49.476;8.484;2023-03-23T09:03:33;5.07;;;1.40;;
12947;SDS011;6539;49.476;8.484;2023-03-23T09:06:02;2.17;;;1.30;;
12947;SDS011;6539;49.476;8.484;2023-03-23T09:08:33;1.77;;;1.40;;
12947;SDS011;6539;49.476;8.484;2023-03-23T09:11:03;2.13;;;1.60;;
12947;SDS011;6539;49.476;8.484;2023-03-23T09:13:34;1.60;;;1.30;;
12947;SDS011;6539;49.476;8.484;2023-03-23T09:16:04;1.70;;;1.40;;
12947;SDS011;6539;49.476;8.484;2023-03-23T09:18:34;1.77;;;1.40;;
12947;SDS011;6539;49.476;8.484;2023-03-23T09:21:03;3.00;;;1.80;;
12947;SDS011;6539;49.476;8.484;2023-03-23T09:23:33;3.47;;;1.50;;
12947;SDS011;6539;49.476;8.484;2023-03-23T09:25:59;2.17;;;1.40;;
12947;SDS011;6539;49.476;8.484;2023-03-23T09:28:28;5.77;;;1.60;;
12947;SDS011;6539;49.476;8.484;2023-03-23T09:30:56;1.87;;;1.23;;
12947;SDS011;6539;49.476;8.484;2023-03-23T09:33:26;3.07;;;1.40;;
12947;SDS011;6539;49.476;8.484;2023-03-23T09:36:01;3.17;;;1.40;;
12947;SDS011;6539;49.476;8.484;2023-03-23T09:38:29;1.93;;;1.40;;
12947;SDS011;6539;49.476;8.484;2023-03-23T09:47:38;4.10;;;1.57;;
12947;SDS011;6539;49.476;8.484;2023-03-23T09:51:00;2.60;;;1.70;;
12947;SDS011;6539;49.476;8.484;2023-03-23T09:53:47;4.23;;;1.90;;
12947;SDS011;6539;49.476;8.484;2023-03-23T09:56:18;3.03;;;1.83;;
12947;SDS011;6539;49.476;8.484;2023-03-23T09:58:52;5.13;;;1.80;;
12947;SDS011;6539;49.476;8.484;2023-03-23T10:06:47;1.93;;;1.17;;
12947;SDS011;6539;49.476;8.484;2023-03-23T10:09:14;2.80;;;1.50;;
12947;SDS011;6539;49.476;8.484;2023-03-23T10:14:58;3.83;;;1.30;;
12947;SDS011;6539;49.476;8.484;2023-03-23T10:18:04;1.97;;;1.47;;
12947;SDS011;6539;49.476;8.484;2023-03-23T10:25:46;1.57;;;1.40;;
12947;SDS011;6539;49.476;8.484;2023-03-23T10:28:44;2.57;;;1.57;;
12947;SDS011;6539;49.476;8.484;2023-03-23T10:31:14;2.00;;;1.60;;
12947;SDS011;6539;49.476;8.484;2023-03-23T10:34:08;2.10;;;1.40;;
12947;SDS011;6539;49.476;8.484;2023-03-23T10:39:49;2.47;;;2.27;;
12947;SDS011;6539;49.476;8.484;2023-03-23T10:42:26;1.97;;;1.50;;
12947;SDS011;6539;49.476;8.484;2023-03-23T10:45:10;1.43;;;0.90;;
12947;SDS011;6539;49.476;8.484;2023-03-23T10:47:44;1.77;;;1.27;;
12947;SDS011;6539;49.476;8.484;2023-03-23T10:50:22;1.30;;;1.20;;
12947;SDS011;6539;49.476;8.484;2023-03-23T10:52:56;1.87;;;1.10;;
12947;SDS011;6539;49.476;8.484;2023-03-23T10:55:38;2.70;;;1.37;;
12947;SDS011;6539;49.476;8.484;2023-03-23T10:58:09;3.00;;;1.50;;
12947;SDS011;6539;49.476;8.484;2023-03-23T11:00:47;3.40;;;1.40;;
12947;SDS011;6539;49.476;8.484;2023-03-23T11:05:48;1.27;;;1.10;;
12947;SDS011;6539;49.476;8.484;2023-03-23T11:08:24;1.43;;;1.20;;
12947;SDS011;6539;49.476;8.484;2023-03-23T11:13:46;1.20;;;1.10;;
12947;SDS011;6539;49.476;8.484;2023-03-23T11:16:26;1.40;;;1.23;;
12947;SDS011;6539;49.476;8.484;2023-03-23T11:18:58;1.93;;;1.27;;
12947;SDS011;6539;49.476;8.484;2023-03-23T11:21:37;1.93;;;1.77;;
12947;SDS011;6539;49.476;8.484;2023-03-23T11:24:05;0.90;;;0.90;;
12947;SDS011;6539;49.476;8.484;2023-03-23T11:26:35;2.97;;;1.10;;
12947;SDS011;6539;49.476;8.484;2023-03-23T11:31:44;2.67;;;1.30;;
12947;SDS011;6539;49.476;8.484;2023-03-23T11:34:20;1.60;;;1.40;;
12947;SDS011;6539;49.476;8.484;2023-03-23T11:41:55;1.20;;;1.10;;
12947;SDS011;6539;49.476;8.484;2023-03-23T11:44:40;1.07;;;0.97;;
12947;SDS011;6539;49.476;8.484;2023-03-23T11:58:21;1.77;;;1.30;;
12947;SDS011;6539;49.476;8.484;2023-03-23T12:01:04;1.93;;;1.00;;
12947;SDS011;6539;49.476;8.484;2023-03-23T12:07:19;2.70;;;1.20;;
12947;SDS011;6539;49.476;8.484;2023-03-23T12:10:04;2.03;;;1.23;;
12947;SDS011;6539;49.476;8.484;2023-03-23T12:13:38;1.70;;;1.17;;
12947;SDS011;6539;49.476;8.484;2023-03-23T12:26:50;1.50;;;1.30;;
12947;SDS011;6539;49.476;8.484;2023-03-23T12:29:45;1.33;;;1.23;;
12947;SDS011;6539;49.476;8.484;2023-03-23T12:41:16;2.10;;;1.73;;
12947;SDS011;6539;49.476;8.484;2023-03-23T12:43:59;1.20;;;1.10;;
12947;SDS011;6539;49.476;8.484;2023-03-23T12:49:32;1.80;;;1.47;;
12947;SDS011;6539;49.476;8.484;2023-03-23T12:52:28;1.97;;;1.03;;
12947;SDS011;6539;49.476;8.484;2023-03-23T12:58:01;1.80;;;1.23;;
12947;SDS011;6539;49.476;8.484;2023-03-23T13:06:07;1.20;;;1.10;;
12947;SDS011;6539;49.476;8.484;2023-03-23T13:11:38;2.33;;;1.20;;
12947;SDS011;6539;49.476;8.484;2023-03-23T13:26:16;1.93;;;1.10;;
12947;SDS011;6539;49.476;8.484;2023-03-23T13:31:24;1.60;;;1.10;;
12947;SDS011;6539;49.476;8.484;2023-03-23T13:36:59;2.33;;;1.30;;
12947;SDS011;6539;49.476;8.484;2023-03-23T13:44:43;2.00;;;1.40;;
12947;SDS011;6539;49.476;8.484;2023-03-23T13:47:39;1.37;;;1.20;;
12947;SDS011;6539;49.476;8.484;2023-03-23T14:03:02;1.50;;;1.07;;
12947;SDS011;6539;49.476;8.484;2023-03-23T14:11:08;1.47;;;1.30;;
12947;SDS011;6539;49.476;8.484;2023-03-23T14:13:44;2.87;;;1.20;;
12947;SDS011;6539;49.476;8.484;2023-03-23T14:21:51;1.33;;;1.23;;
12947;SDS011;6539;49.476;8.484;2023-03-23T14:24:24;1.10;;;1.00;;
12947;SDS011;6539;49.476;8.484;2023-03-23T14:26:52;1.50;;;1.10;;
12947;SDS011;6539;49.476;8.484;2023-03-23T14:29:37;3.77;;;1.40;;
12947;SDS011;6539;49.476;8.484;2023-03-23T14:32:04;3.77;;;1.60;;
12947;SDS011;6539;49.476;8.484;2023-03-23T14:34:37;3.60;;;1.63;;
12947;SDS011;6539;49.476;8.484;2023-03-23T14:37:08;1.67;;;1.37;;
12947;SDS011;6539;49.476;8.484;2023-03-23T14:39:40;1.83;;;1.47;;
12947;SDS011;6539;49.476;8.484;2023-03-23T14:42:16;1.60;;;1.40;;
12947;SDS011;6539;49.476;8.484;2023-03-23T14:44:48;2.93;;;1.23;;
12947;SDS011;6539;49.476;8.484;2023-03-23T14:47:28;1.40;;;1.30;;
12947;SDS011;6539;49.476;8.484;2023-03-23T14:50:01;2.33;;;1.37;;
12947;SDS011;6539;49.476;8.484;2023-03-23T14:52:35;1.10;;;1.00;;
12947;SDS011;6539;49.476;8.484;2023-03-23T14:55:13;3.03;;;1.30;;
12947;SDS011;6539;49.476;8.484;2023-03-23T14:57:46;1.90;;;1.30;;
12947;SDS011;6539;49.476;8.484;2023-03-23T15:00:23;3.10;;;1.30;;
12947;SDS011;6539;49.476;8.484;2023-03-23T15:02:58;2.80;;;1.70;;
12947;SDS011;6539;49.476;8.484;2023-03-23T15:05:35;2.30;;;1.40;;
12947;SDS011;6539;49.476;8.484;2023-03-23T15:08:14;2.53;;;1.60;;
12947;SDS011;6539;49.476;8.484;2023-03-23T15:10:54;2.10;;;1.40;;
12947;SDS011;6539;49.476;8.484;2023-03-23T15:13:53;3.67;;;1.40;;
12947;SDS011;6539;49.476;8.484;2023-03-23T15:16:27;3.97;;;1.40;;
12947;SDS011;6539;49.476;8.484;2023-03-23T15:19:06;7.83;;;1.87;;
12947;SDS011;6539;49.476;8.484;2023-03-23T15:21:47;3.90;;;2.17;;
12947;SDS011;6539;49.476;8.484;2023-03-23T15:24:39;2.80;;;1.80;;
12947;SDS011;6539;49.476;8.484;2023-03-23T15:27:13;2.17;;;1.33;;
12947;SDS011;6539;49.476;8.484;2023-03-23T15:32:26;2.70;;;1.60;;
12947;SDS011;6539;49.476;8.484;2023-03-23T15:34:56;3.53;;;1.87;;
12947;SDS011;6539;49.476;8.484;2023-03-23T15:37:28;4.70;;;1.70;;
12947;SDS011;6539;49.476;8.484;2023-03-23T15:40:04;3.17;;;1.67;;
12947;SDS011;6539;49.476;8.484;2023-03-23T15:42:32;2.00;;;1.30;;
12947;SDS011;6539;49.476;8.484;2023-03-23T15:52:55;2.03;;;1.40;;
12947;SDS011;6539;49.476;8.484;2023-03-23T15:58:07;2.63;;;1.83;;
12947;SDS011;6539;49.476;8.484;2023-03-23T16:00:39;5.23;;;2.87;;
12947;SDS011;6539;49.476;8.484;2023-03-23T16:03:10;2.80;;;1.77;;
12947;SDS011;6539;49.476;8.484;2023-03-23T16:05:48;3.53;;;2.17;;
12947;SDS011;6539;49.476;8.484;2023-03-23T16:08:14;1.80;;;1.57;;
12947;SDS011;6539;49.476;8.484;2023-03-23T16:10:40;1.70;;;1.60;;
12947;SDS011;6539;49.476;8.484;2023-03-23T16:13:06;2.13;;;1.70;;
12947;SDS011;6539;49.476;8.484;2023-03-23T16:15:37;3.20;;;1.60;;
12947;SDS011;6539;49.476;8.484;2023-03-23T16:18:02;1.80;;;1.67;;
12947;SDS011;6539;49.476;8.484;2023-03-23T16:20:29;2.80;;;2.03;;
12947;SDS011;6539;49.476;8.484;2023-03-23T16:22:57;3.30;;;2.30;;
12947;SDS011;6539;49.476;8.484;2023-03-23T16:25:23;3.97;;;2.40;;
12947;SDS011;6539;49.476;8.484;2023-03-23T16:27:49;5.53;;;2.30;;
12947;SDS011;6539;49.476;8.484;2023-03-23T16:30:19;5.60;;;1.97;;
12947;SDS011;6539;49.476;8.484;2023-03-23T16:32:52;5.50;;;1.87;;
12947;SDS011;6539;49.476;8.484;2023-03-23T16:35:19;4.63;;;2.30;;
12947;SDS011;6539;49.476;8.484;2023-03-23T16:37:53;5.57;;;2.63;;
12947;SDS011;6539;49.476;8.484;2023-03-23T16:40:21;8.30;;;2.50;;
12947;SDS011;6539;49.476;8.484;2023-03-23T16:42:49;3.47;;;2.43;;
12947;SDS011;6539;49.476;8.484;2023-03-23T16:45:18;5.03;;;2.43;;
12947;SDS011;6539;49.476;8.484;2023-03-23T16:47:44;4.67;;;2.40;;
12947;SDS011;6539;49.476;8.484;2023-03-23T16:50:13;6.07;;;2.00;;
12947;SDS011;6539;49.476;8.484;2023-03-23T16:52:43;5.23;;;2.40;;
12947;SDS011;6539;49.476;8.484;2023-03-23T16:55:14;4.50;;;2.50;;
12947;SDS011;6539;49.476;8.484;2023-03-23T16:57:43;5.87;;;2.70;;
12947;SDS011;6539;49.476;8.484;2023-03-23T17:00:15;4.77;;;2.40;;
12947;SDS011;6539;49.476;8.484;2023-03-23T17:02:46;2.67;;;1.87;;
12947;SDS011;6539;49.476;8.484;2023-03-23T17:05:20;5.37;;;2.00;;
12947;SDS011;6539;49.476;8.484;2023-03-23T17:07:53;3.20;;;2.07;;
12947;SDS011;6539;49.476;8.484;2023-03-23T17:10:23;4.37;;;2.00;;
12947;SDS011;6539;49.476;8.484;2023-03-23T17:12:53;3.57;;;2.30;;
12947;SDS011;6539;49.476;8.484;2023-03-23T17:15:19;3.80;;;2.30;;
12947;SDS011;6539;49.476;8.484;2023-03-23T17:17:52;4.87;;;2.70;;
12947;SDS011;6539;49.476;8.484;2023-03-23T17:20:19;4.57;;;2.70;;
12947;SDS011;6539;49.476;8.484;2023-03-23T17:22:45;3.37;;;2.37;;
12947;SDS011;6539;49.476;8.484;2023-03-23T17:25:11;4.80;;;2.37;;
12947;SDS011;6539;49.476;8.484;2023-03-23T17:27:42;3.57;;;2.10;;
12947;SDS011;6539;49.476;8.484;2023-03-23T17:30:09;4.30;;;2.30;;
12947;SDS011;6539;49.476;8.484;2023-03-23T17:32:38;4.10;;;2.70;;
12947;SDS011;6539;49.476;8.484;2023-03-23T17:35:05;3.77;;;2.30;;
12947;SDS011;6539;49.476;8.484;2023-03-23T17:37:36;5.97;;;2.57;;
12947;SDS011;6539;49.476;8.484;2023-03-23T17:40:03;2.70;;;2.50;;
12947;SDS011;6539;49.476;8.484;2023-03-23T17:42:36;4.40;;;2.43;;
12947;SDS011;6539;49.476;8.484;2023-03-23T17:45:05;2.43;;;2.17;;
12947;SDS011;6539;49.476;8.484;2023-03-23T17:47:35;7.60;;;5.70;;
12947;SDS011;6539;49.476;8.484;2023-03-23T17:50:06;6.87;;;4.47;;
12947;SDS011;6539;49.476;8.484;2023-03-23T17:52:33;5.23;;;2.63;;
12947;SDS011;6539;49.476;8.484;2023-03-23T17:55:01;4.47;;;3.07;;
12947;SDS011;6539;49.476;8.484;2023-03-23T17:57:26;3.83;;;2.60;;
12947;SDS011;6539;49.476;8.484;2023-03-23T17:59:52;3.13;;;2.83;;
12947;SDS011;6539;49.476;8.484;2023-03-23T18:02:18;4.27;;;2.70;;
12947;SDS011;6539;49.476;8.484;2023-03-23T18:04:45;2.73;;;2.37;;
12947;SDS011;6539;49.476;8.484;2023-03-23T18:07:13;7.10;;;5.87;;
12947;SDS011;6539;49.476;8.484;2023-03-23T18:09:39;3.90;;;3.10;;
12947;SDS011;6539;49.476;8.484;2023-03-23T18:12:12;4.73;;;2.80;;
12947;SDS011;6539;49.476;8.484;2023-03-23T18:14:43;4.60;;;2.80;;